createdAt,value
2023-02-03T00:04:12.568Z,101992.25
2023-02-03T00:09:17.821Z,101996.59
2023-02-03T00:14:21.044Z,101994.81
2023-02-03T00:19:24.275Z,101992.25
2023-02-03T00:24:29.777Z,101994.84
2023-02-03T00:29:32.996Z,101991.34
2023-02-03T00:34:36.290Z,101994.88
2023-02-03T00:39:41.248Z,101988.72
2023-02-03T00:44:44.433Z,101986.16
2023-02-03T00:49:47.629Z,101980.06
2023-02-03T00:54:52.510Z,101990.56
2023-02-03T00:59:56.192Z,101984.47
2023-02-03T01:04:59.440Z,101987.09
2023-02-03T01:10:04.524Z,101993.19
2023-02-03T01:15:08.536Z,101984.47
2023-02-03T01:20:14.081Z,101988.81
2023-02-03T01:25:18.777Z,101992.34
2023-02-03T01:30:22.031Z,101997.56
2023-02-03T01:35:25.233Z,101995.81
2023-02-03T01:40:29.871Z,101998.44
2023-02-03T01:45:33.157Z,102001.06
2023-02-03T01:50:38.719Z,102009.81
2023-02-03T01:55:48.172Z,102015.06
2023-02-03T02:00:51.834Z,102003.69
2023-02-03T02:06:00.443Z,102008.94
2023-02-03T02:11:05.882Z,102007.16
2023-02-03T02:16:15.815Z,102009.78
2023-02-03T02:21:46.650Z,102008.91
2023-02-03T02:27:08.114Z,102013.31
2023-02-03T02:32:26.808Z,102020.25
2023-02-03T02:37:39.611Z,102008.91
2023-02-03T02:42:55.281Z,102011.53
2023-02-03T02:48:06.314Z,102017.66
2023-02-03T02:53:11.599Z,102016.72
2023-02-03T02:58:18.532Z,102013.25
2023-02-03T03:03:25.530Z,102020.25
2023-02-03T03:08:33.227Z,102021.13
2023-02-03T03:13:40.991Z,102012.41
2023-02-03T03:18:50.262Z,102024.63
2023-02-03T03:23:57.588Z,102025.50
2023-02-03T03:29:08.820Z,102015.94
2023-02-03T03:34:14.860Z,102021.13
2023-02-03T03:39:29.261Z,102014.13
2023-02-03T03:44:37.261Z,102008.91
2023-02-03T03:49:45.747Z,102008.00
2023-02-03T03:54:50.458Z,102009.72
2023-02-03T03:59:54.448Z,102010.63
2023-02-03T04:05:01.687Z,102020.22
2023-02-03T04:10:07.914Z,102022.84
2023-02-03T04:15:11.262Z,102025.44
2023-02-03T04:20:16.570Z,102033.28
2023-02-03T04:25:19.469Z,102032.38
2023-02-03T04:30:23.031Z,102032.41
2023-02-03T04:35:27.941Z,102040.19
2023-02-03T04:40:32.071Z,102038.44
2023-02-03T04:45:36.533Z,102032.38
2023-02-03T04:50:41.081Z,102044.47
2023-02-03T04:55:47.936Z,102033.22
2023-02-03T05:00:51.138Z,102028.88
2023-02-03T05:05:58.690Z,102021.91
2023-02-03T05:11:02.350Z,102021.06
2023-02-03T05:16:06.311Z,102038.44
2023-02-03T05:21:10.882Z,102032.28
2023-02-03T05:26:14.439Z,102026.19
2023-02-03T05:31:17.656Z,102021.78
2023-02-03T05:36:22.299Z,102033.13
2023-02-03T05:41:43.096Z,102034.88
2023-02-03T05:46:46.269Z,102038.31
2023-02-03T05:51:51.126Z,102047.09
2023-02-03T05:56:54.251Z,102054.06
2023-02-03T06:01:57.387Z,102061.91
2023-02-03T06:07:01.903Z,102066.25
2023-02-03T06:12:05.478Z,102063.59
2023-02-03T06:17:08.669Z,102076.66
2023-02-03T06:22:13.236Z,102076.66
2023-02-03T06:27:17.231Z,102087.09
2023-02-03T06:32:20.703Z,102080.09
2023-02-03T06:37:25.242Z,102087.09
2023-02-03T06:42:28.439Z,102094.06
2023-02-03T06:47:31.567Z,102093.16
2023-02-03T06:52:36.145Z,102102.66
2023-02-03T06:57:45.134Z,102099.16
2023-02-03T07:02:55.267Z,102112.22
2023-02-03T07:08:00.367Z,102124.47
2023-02-03T07:13:05.009Z,102117.47
2023-02-03T07:18:08.253Z,102126.19
2023-02-03T07:23:12.851Z,102119.25
2023-02-03T07:28:16.360Z,102123.56
2023-02-03T07:33:19.643Z,102126.25
2023-02-03T07:38:25.077Z,102125.28
2023-02-03T07:43:28.059Z,102132.16
2023-02-03T07:48:31.291Z,102141.78
2023-02-03T07:53:35.987Z,102153.13
2023-02-03T07:58:39.567Z,102160.16
2023-02-03T08:03:43.531Z,102166.28
2023-02-03T08:08:48.143Z,102160.19
2023-02-03T08:13:51.443Z,102177.63
2023-02-03T08:18:54.760Z,102187.22
2023-02-03T08:23:59.448Z,102184.63
2023-02-03T08:29:03.912Z,102191.56
2023-02-03T08:34:07.187Z,102194.25
2023-02-03T08:39:12.620Z,102190.03
2023-02-03T08:44:15.975Z,102205.97
2023-02-03T08:49:19.203Z,102207.00
2023-02-03T08:54:26.969Z,102205.34
2023-02-03T08:59:31.252Z,102207.16
2023-02-03T09:04:34.655Z,102215.06
2023-02-03T09:09:39.472Z,102218.63
2023-02-03T09:14:42.799Z,102220.38
2023-02-03T09:19:45.972Z,102229.13
2023-02-03T09:24:51.480Z,102228.28
2023-02-03T09:29:54.687Z,102235.28
2023-02-03T09:34:57.859Z,102227.44
2023-02-03T09:40:02.693Z,102225.66
2023-02-03T09:45:17.068Z,102224.78
2023-02-03T09:50:23.946Z,102224.75
2023-02-03T09:55:35.317Z,102233.50
2023-02-03T10:00:42.957Z,102231.72
2023-02-03T10:05:59.230Z,102235.22
2023-02-03T10:11:12.770Z,102239.56
2023-02-03T10:16:29.418Z,102226.41
2023-02-03T10:21:38.623Z,102228.03
2023-02-03T10:26:43.861Z,102227.13
2023-02-03T10:31:47.911Z,102226.28
2023-02-03T10:36:59.507Z,102223.44
2023-02-03T10:42:07.044Z,102215.50
2023-02-03T10:47:21.097Z,102215.56
2023-02-03T10:52:30.421Z,102212.81
2023-02-03T10:57:37.128Z,102201.28
2023-02-03T11:02:40.461Z,102205.59
2023-02-03T11:07:44.573Z,102205.47
2023-02-03T11:12:49.249Z,102198.09
2023-02-03T11:17:52.483Z,102192.00
2023-02-03T11:22:55.855Z,102189.09
2023-02-03T11:28:07.071Z,102189.91
2023-02-03T11:33:19.809Z,102172.75
2023-02-03T11:38:34.844Z,102159.22
2023-02-03T11:43:39.437Z,102155.75
2023-02-03T11:49:01.981Z,102153.84
2023-02-03T11:54:24.655Z,102142.91
2023-02-03T11:59:46.448Z,102144.47
2023-02-03T12:05:12.160Z,102132.06
2023-02-03T12:10:28.320Z,102124.09
2023-02-03T12:15:50.118Z,102125.94
2023-02-03T12:21:05.698Z,102116.47
2023-02-03T12:26:20.449Z,102112.00
2023-02-03T12:31:34.119Z,102098.63
2023-02-03T12:36:41.860Z,102088.38
2023-02-03T12:41:51.764Z,102071.34
2023-02-03T12:47:02.991Z,102063.53
2023-02-03T12:52:15.754Z,102059.28
2023-02-03T12:57:25.962Z,102046.38
2023-02-03T13:02:34.845Z,102028.16
2023-02-03T13:07:44.811Z,102028.66
2023-02-03T13:12:52.753Z,102026.75
2023-02-03T13:18:02.815Z,102015.91
2023-02-03T13:23:10.653Z,102011.06
2023-02-03T13:28:24.362Z,102007.03
2023-02-03T13:33:47.929Z,101999.75
2023-02-03T13:39:13.807Z,101993.69
2023-02-03T13:44:20.594Z,101994.84
2023-02-03T13:49:30.098Z,101988.78
2023-02-03T13:54:37.541Z,101975.91
2023-02-03T13:59:43.869Z,101963.50
2023-02-03T14:04:58.165Z,101961.22
2023-02-03T14:10:23.612Z,101961.94
2023-02-03T14:15:32.977Z,101948.38
2023-02-03T14:20:51.416Z,101938.53
2023-02-03T14:25:57.777Z,101937.16
2023-02-03T14:31:12.797Z,101927.97
2023-02-03T14:36:55.137Z,101919.53
2023-02-03T14:42:06.889Z,101913.66
2023-02-03T14:47:18.758Z,101926.09
2023-02-03T14:52:37.310Z,101909.22
2023-02-03T14:57:45.599Z,101919.75
2023-02-03T15:03:20.165Z,101907.97
2023-02-03T15:08:37.332Z,101908.47
2023-02-03T15:13:40.546Z,101920.53
2023-02-03T15:18:43.866Z,101903.63
2023-02-03T15:23:51.276Z,101898.56
2023-02-03T15:28:59.417Z,101896.47
2023-02-03T15:34:09.031Z,101902.88
2023-02-03T15:39:23.645Z,101904.31
2023-02-03T15:44:32.226Z,101912.50
2023-02-03T15:49:40.330Z,101900.38
2023-02-03T15:54:53.350Z,101904.00
2023-02-03T15:59:58.761Z,101899.22
2023-02-03T16:05:06.361Z,101891.69
2023-02-03T16:15:39.936Z,101894.78
2023-02-03T16:20:50.636Z,101902.56
2023-02-03T16:26:07.753Z,101902.75
2023-02-03T16:31:34.581Z,101896.50
2023-02-03T16:36:59.833Z,101903.47
2023-02-03T16:42:31.948Z,101903.19
2023-02-03T16:47:57.190Z,101909.22
2023-02-03T16:53:00.332Z,101911.19
2023-02-03T16:58:03.511Z,101914.06
2023-02-03T17:03:08.105Z,101909.84
2023-02-03T17:08:11.151Z,101924.06
2023-02-03T17:13:14.309Z,101913.09
2023-02-03T17:18:18.870Z,101922.50
2023-02-03T17:23:21.982Z,101933.03
2023-02-03T17:28:25.901Z,101927.31
2023-02-03T17:33:31.244Z,101934.44
2023-02-03T17:54:45.082Z,101943.72
2023-02-03T17:59:48.568Z,101950.53
2023-02-03T18:04:53.249Z,101952.91
2023-02-03T18:09:56.508Z,101973.81
2023-02-03T18:14:59.732Z,101972.59
2023-02-03T18:20:04.604Z,101983.47
2023-02-03T18:25:09.871Z,101984.53
2023-02-03T18:30:15.221Z,101993.63
2023-02-03T18:35:19.920Z,101986.88
2023-02-03T18:40:23.345Z,101994.13
2023-02-03T18:45:26.572Z,102011.88
2023-02-03T18:50:31.757Z,102008.41
2023-02-03T18:55:35.376Z,102011.28
2023-02-03T19:00:39.426Z,102019.50
2023-02-03T19:05:44.464Z,102017.97
2023-02-03T19:10:48.587Z,102017.59
2023-02-03T19:15:53.254Z,102027.75
2023-02-03T19:20:58.090Z,102021.63
2023-02-03T19:26:02.301Z,102027.00
2023-02-03T19:31:08.494Z,102030.97
2023-02-03T19:36:14.109Z,102027.56
2023-02-03T19:41:17.318Z,102030.34
2023-02-03T19:46:22.043Z,102027.88
2023-02-03T19:51:26.780Z,102032.28
2023-02-03T19:56:30.376Z,102034.75
2023-02-03T20:01:33.677Z,102037.63
2023-02-03T20:06:38.444Z,102032.56
2023-02-03T20:11:41.695Z,102042.34
2023-02-03T20:16:45.171Z,102051.91
2023-02-03T20:21:49.994Z,102048.31
2023-02-03T20:26:53.271Z,102060.00
2023-02-03T20:31:57.555Z,102062.75
2023-02-03T20:37:02.168Z,102067.13
2023-02-03T20:42:14.416Z,102061.88
2023-02-03T20:47:19.848Z,102073.28
2023-02-03T20:52:24.412Z,102074.25
2023-02-03T20:57:27.703Z,102076.81
2023-02-03T21:02:52.180Z,102080.13
2023-02-03T21:07:56.811Z,102089.13
2023-02-03T21:13:00.203Z,102090.94
2023-02-03T21:18:03.406Z,102097.97
2023-02-03T21:23:13.329Z,102098.00
2023-02-03T21:28:25.179Z,102091.84
2023-02-03T21:33:36.625Z,102097.09
2023-02-03T21:38:41.294Z,102095.38
2023-02-03T21:43:45.086Z,102100.66
2023-02-03T21:48:52.084Z,102099.75
2023-02-03T21:53:58.424Z,102099.75
2023-02-03T21:59:01.685Z,102098.88
2023-02-03T22:04:06.719Z,102109.41
2023-02-03T22:09:13.960Z,102120.75
2023-02-03T22:14:18.677Z,102118.13
2023-02-03T22:19:22.110Z,102119.00
2023-02-03T22:24:26.859Z,102112.88
2023-02-03T22:29:30.164Z,102119.00
2023-02-03T22:34:33.450Z,102113.78
2023-02-03T22:39:38.162Z,102112.91
2023-02-03T22:44:41.410Z,102112.91
2023-02-03T22:49:44.678Z,102111.13
2023-02-03T22:54:49.321Z,102104.19
2023-02-03T22:59:52.516Z,102107.66
2023-02-03T23:04:55.665Z,102115.50
2023-02-03T23:10:00.324Z,102113.78
2023-02-03T23:15:03.763Z,102113.78
2023-02-03T23:20:09.322Z,102109.41
2023-02-03T23:25:14.040Z,102112.00
2023-02-03T23:30:17.457Z,102111.97
2023-02-03T23:35:37.913Z,102116.38
2023-02-03T23:40:42.795Z,102109.38
2023-02-03T23:45:45.923Z,102120.72
2023-02-03T23:50:49.468Z,102118.06
2023-02-03T23:55:54.097Z,102126.63
